sensor_id;sensor_type;location;lat;lon;timestamp;P1;durP1;ratioP1;P2;durP2;ratioP2
65315;SDS011;51920;53.952;10.292;2023-11-21T00:02:26;6.43;;;3.97;;
65315;SDS011;51920;53.952;10.292;2023-11-21T00:04:54;6.40;;;4.10;;
65315;SDS011;51920;53.952;10.292;2023-11-21T00:07:21;6.23;;;4.00;;
65315;SDS011;51920;53.952;10.292;2023-11-21T00:09:48;6.25;;;3.58;;
65315;SDS011;51920;53.952;10.292;2023-11-21T00:12:14;6.50;;;3.92;;
65315;SDS011;51920;53.952;10.292;2023-11-21T00:14:41;7.43;;;4.07;;
65315;SDS011;51920;53.952;10.292;2023-11-21T00:17:08;6.90;;;4.30;;
65315;SDS011;51920;53.952;10.292;2023-11-21T00:19:35;9.57;;;4.57;;
65315;SDS011;51920;53.952;10.292;2023-11-21T00:22:02;7.07;;;4.38;;
65315;SDS011;51920;53.952;10.292;2023-11-21T00:24:30;8.02;;;4.70;;
65315;SDS011;51920;53.952;10.292;2023-11-21T00:26:56;7.22;;;4.25;;
65315;SDS011;51920;53.952;10.292;2023-11-21T00:29:23;8.88;;;4.95;;
65315;SDS011;51920;53.952;10.292;2023-11-21T00:31:50;8.03;;;4.60;;
65315;SDS011;51920;53.952;10.292;2023-11-21T00:34:17;8.73;;;4.95;;
65315;SDS011;51920;53.952;10.292;2023-11-21T00:36:44;8.10;;;4.65;;
65315;SDS011;51920;53.952;10.292;2023-11-21T00:39:10;7.53;;;4.32;;
65315;SDS011;51920;53.952;10.292;2023-11-21T00:41:38;7.55;;;4.43;;
65315;SDS011;51920;53.952;10.292;2023-11-21T00:44:05;7.30;;;4.60;;
65315;SDS011;51920;53.952;10.292;2023-11-21T00:46:33;8.50;;;4.47;;
65315;SDS011;51920;53.952;10.292;2023-11-21T00:49:00;8.32;;;4.70;;
65315;SDS011;51920;53.952;10.292;2023-11-21T00:51:26;8.50;;;4.40;;
65315;SDS011;51920;53.952;10.292;2023-11-21T00:53:53;8.35;;;4.68;;
65315;SDS011;51920;53.952;10.292;2023-11-21T00:56:20;8.33;;;4.70;;
65315;SDS011;51920;53.952;10.292;2023-11-21T00:58:47;9.05;;;4.50;;
65315;SDS011;51920;53.952;10.292;2023-11-21T01:01:16;8.00;;;4.50;;
65315;SDS011;51920;53.952;10.292;2023-11-21T01:03:43;7.22;;;4.55;;
65315;SDS011;51920;53.952;10.292;2023-11-21T01:06:10;8.70;;;4.97;;
65315;SDS011;51920;53.952;10.292;2023-11-21T01:08:38;7.40;;;4.63;;
65315;SDS011;51920;53.952;10.292;2023-11-21T01:11:04;7.43;;;4.53;;
65315;SDS011;51920;53.952;10.292;2023-11-21T01:13:34;9.27;;;5.15;;
65315;SDS011;51920;53.952;10.292;2023-11-21T01:16:01;7.43;;;4.78;;
65315;SDS011;51920;53.952;10.292;2023-11-21T01:18:28;8.20;;;4.85;;
65315;SDS011;51920;53.952;10.292;2023-11-21T01:20:55;8.27;;;4.33;;
65315;SDS011;51920;53.952;10.292;2023-11-21T01:23:22;8.55;;;4.93;;
65315;SDS011;51920;53.952;10.292;2023-11-21T01:25:49;8.95;;;5.13;;
65315;SDS011;51920;53.952;10.292;2023-11-21T01:28:17;8.63;;;5.18;;
65315;SDS011;51920;53.952;10.292;2023-11-21T01:30:44;8.40;;;4.88;;
65315;SDS011;51920;53.952;10.292;2023-11-21T01:33:11;8.73;;;4.50;;
65315;SDS011;51920;53.952;10.292;2023-11-21T01:35:38;9.07;;;5.20;;
65315;SDS011;51920;53.952;10.292;2023-11-21T01:38:05;10.00;;;5.30;;
65315;SDS011;51920;53.952;10.292;2023-11-21T01:40:34;8.82;;;5.25;;
65315;SDS011;51920;53.952;10.292;2023-11-21T01:43:02;9.10;;;4.82;;
65315;SDS011;51920;53.952;10.292;2023-11-21T01:45:32;8.40;;;5.10;;
65315;SDS011;51920;53.952;10.292;2023-11-21T01:48:00;9.98;;;5.32;;
65315;SDS011;51920;53.952;10.292;2023-11-21T01:50:27;8.40;;;5.20;;
65315;SDS011;51920;53.952;10.292;2023-11-21T01:52:55;9.43;;;4.72;;
65315;SDS011;51920;53.952;10.292;2023-11-21T01:55:22;11.15;;;5.10;;
65315;SDS011;51920;53.952;10.292;2023-11-21T01:57:52;9.57;;;5.00;;
65315;SDS011;51920;53.952;10.292;2023-11-21T02:00:20;8.23;;;4.80;;
65315;SDS011;51920;53.952;10.292;2023-11-21T02:02:48;8.77;;;5.35;;
65315;SDS011;51920;53.952;10.292;2023-11-21T02:05:15;8.02;;;4.88;;
65315;SDS011;51920;53.952;10.292;2023-11-21T02:07:46;9.55;;;5.10;;
65315;SDS011;51920;53.952;10.292;2023-11-21T02:10:14;7.90;;;4.47;;
65315;SDS011;51920;53.952;10.292;2023-11-21T02:12:42;8.48;;;4.88;;
65315;SDS011;51920;53.952;10.292;2023-11-21T02:15:13;7.60;;;4.80;;
65315;SDS011;51920;53.952;10.292;2023-11-21T02:17:47;8.10;;;4.60;;
65315;SDS011;51920;53.952;10.292;2023-11-21T02:20:18;8.57;;;5.20;;
65315;SDS011;51920;53.952;10.292;2023-11-21T02:22:50;8.33;;;4.50;;
65315;SDS011;51920;53.952;10.292;2023-11-21T02:25:25;8.25;;;4.95;;
65315;SDS011;51920;53.952;10.292;2023-11-21T02:27:54;8.45;;;4.70;;
65315;SDS011;51920;53.952;10.292;2023-11-21T02:30:22;8.20;;;5.30;;
65315;SDS011;51920;53.952;10.292;2023-11-21T02:32:51;8.63;;;5.53;;
65315;SDS011;51920;53.952;10.292;2023-11-21T02:35:24;9.37;;;5.37;;
65315;SDS011;51920;53.952;10.292;2023-11-21T02:37:52;10.40;;;5.72;;
65315;SDS011;51920;53.952;10.292;2023-11-21T02:40:19;8.60;;;5.35;;
65315;SDS011;51920;53.952;10.292;2023-11-21T02:42:47;10.70;;;5.20;;
65315;SDS011;51920;53.952;10.292;2023-11-21T02:45:15;8.73;;;5.22;;
65315;SDS011;51920;53.952;10.292;2023-11-21T02:47:44;10.67;;;5.30;;
65315;SDS011;51920;53.952;10.292;2023-11-21T02:50:11;10.80;;;5.90;;
65315;SDS011;51920;53.952;10.292;2023-11-21T02:52:38;10.90;;;6.15;;
65315;SDS011;51920;53.952;10.292;2023-11-21T02:55:08;10.25;;;5.50;;
65315;SDS011;51920;53.952;10.292;2023-11-21T02:57:35;12.45;;;5.72;;
65315;SDS011;51920;53.952;10.292;2023-11-21T03:00:02;9.83;;;5.50;;
65315;SDS011;51920;53.952;10.292;2023-11-21T03:02:29;10.25;;;5.63;;
65315;SDS011;51920;53.952;10.292;2023-11-21T03:04:56;11.38;;;6.20;;
65315;SDS011;51920;53.952;10.292;2023-11-21T03:07:23;10.65;;;6.20;;
65315;SDS011;51920;53.952;10.292;2023-11-21T03:09:50;11.52;;;6.45;;
65315;SDS011;51920;53.952;10.292;2023-11-21T03:12:17;12.60;;;6.87;;
65315;SDS011;51920;53.952;10.292;2023-11-21T03:14:44;14.35;;;7.15;;
65315;SDS011;51920;53.952;10.292;2023-11-21T03:17:10;15.85;;;7.43;;
65315;SDS011;51920;53.952;10.292;2023-11-21T03:19:38;12.25;;;6.68;;
65315;SDS011;51920;53.952;10.292;2023-11-21T03:22:05;12.20;;;6.65;;
65315;SDS011;51920;53.952;10.292;2023-11-21T03:24:32;12.27;;;6.43;;
65315;SDS011;51920;53.952;10.292;2023-11-21T03:26:59;11.80;;;6.18;;
65315;SDS011;51920;53.952;10.292;2023-11-21T03:29:26;11.48;;;5.90;;
65315;SDS011;51920;53.952;10.292;2023-11-21T03:31:53;11.02;;;6.07;;
65315;SDS011;51920;53.952;10.292;2023-11-21T03:34:26;11.77;;;6.85;;
65315;SDS011;51920;53.952;10.292;2023-11-21T03:36:54;12.70;;;6.30;;
65315;SDS011;51920;53.952;10.292;2023-11-21T03:39:21;12.95;;;6.90;;
65315;SDS011;51920;53.952;10.292;2023-11-21T03:41:48;15.63;;;7.60;;
65315;SDS011;51920;53.952;10.292;2023-11-21T03:44:15;12.73;;;6.90;;
65315;SDS011;51920;53.952;10.292;2023-11-21T03:46:42;13.30;;;6.93;;
65315;SDS011;51920;53.952;10.292;2023-11-21T03:49:11;13.80;;;6.93;;
65315;SDS011;51920;53.952;10.292;2023-11-21T03:51:38;13.55;;;7.13;;
65315;SDS011;51920;53.952;10.292;2023-11-21T03:54:05;13.20;;;7.22;;
65315;SDS011;51920;53.952;10.292;2023-11-21T03:56:32;14.32;;;7.65;;
65315;SDS011;51920;53.952;10.292;2023-11-21T03:58:59;16.17;;;7.97;;
65315;SDS011;51920;53.952;10.292;2023-11-21T04:01:26;15.47;;;7.23;;
65315;SDS011;51920;53.952;10.292;2023-11-21T04:03:52;14.65;;;7.30;;
65315;SDS011;51920;53.952;10.292;2023-11-21T04:06:19;14.40;;;7.45;;
65315;SDS011;51920;53.952;10.292;2023-11-21T04:08:45;16.73;;;7.18;;
65315;SDS011;51920;53.952;10.292;2023-11-21T04:11:12;15.80;;;7.53;;
65315;SDS011;51920;53.952;10.292;2023-11-21T04:13:39;14.77;;;6.83;;
65315;SDS011;51920;53.952;10.292;2023-11-21T04:16:07;13.45;;;7.25;;
65315;SDS011;51920;53.952;10.292;2023-11-21T04:18:37;12.80;;;7.13;;
65315;SDS011;51920;53.952;10.292;2023-11-21T04:21:05;14.00;;;7.15;;
65315;SDS011;51920;53.952;10.292;2023-11-21T04:23:32;13.63;;;7.05;;
65315;SDS011;51920;53.952;10.292;2023-11-21T04:25:59;13.40;;;6.50;;
65315;SDS011;51920;53.952;10.292;2023-11-21T04:28:28;12.50;;;6.80;;
65315;SDS011;51920;53.952;10.292;2023-11-21T04:30:55;12.07;;;6.45;;
65315;SDS011;51920;53.952;10.292;2023-11-21T04:33:21;13.40;;;7.00;;
65315;SDS011;51920;53.952;10.292;2023-11-21T04:35:49;12.20;;;6.30;;
65315;SDS011;51920;53.952;10.292;2023-11-21T04:38:15;11.77;;;6.13;;
65315;SDS011;51920;53.952;10.292;2023-11-21T04:40:42;11.52;;;6.22;;
65315;SDS011;51920;53.952;10.292;2023-11-21T04:43:09;10.68;;;6.03;;
65315;SDS011;51920;53.952;10.292;2023-11-21T04:45:35;10.40;;;5.22;;
65315;SDS011;51920;53.952;10.292;2023-11-21T04:48:02;10.57;;;5.15;;
65315;SDS011;51920;53.952;10.292;2023-11-21T04:50:30;10.57;;;5.20;;
65315;SDS011;51920;53.952;10.292;2023-11-21T04:52:56;9.15;;;4.97;;
65315;SDS011;51920;53.952;10.292;2023-11-21T04:55:23;12.77;;;5.93;;
65315;SDS011;51920;53.952;10.292;2023-11-21T04:57:50;8.40;;;5.10;;
65315;SDS011;51920;53.952;10.292;2023-11-21T05:00:17;8.02;;;4.80;;
65315;SDS011;51920;53.952;10.292;2023-11-21T05:02:44;7.00;;;4.53;;
65315;SDS011;51920;53.952;10.292;2023-11-21T05:05:10;8.85;;;5.10;;
65315;SDS011;51920;53.952;10.292;2023-11-21T05:07:39;9.48;;;4.95;;
65315;SDS011;51920;53.952;10.292;2023-11-21T05:10:07;8.50;;;4.75;;
65315;SDS011;51920;53.952;10.292;2023-11-21T05:12:37;10.20;;;4.70;;
65315;SDS011;51920;53.952;10.292;2023-11-21T05:15:04;7.33;;;4.30;;
65315;SDS011;51920;53.952;10.292;2023-11-21T05:17:34;7.85;;;4.25;;
65315;SDS011;51920;53.952;10.292;2023-11-21T05:20:01;7.20;;;4.90;;
65315;SDS011;51920;53.952;10.292;2023-11-21T05:22:34;9.93;;;4.45;;
65315;SDS011;51920;53.952;10.292;2023-11-21T05:25:01;7.72;;;4.50;;
65315;SDS011;51920;53.952;10.292;2023-11-21T05:27:32;7.27;;;4.43;;
65315;SDS011;51920;53.952;10.292;2023-11-21T05:29:58;7.63;;;4.70;;
65315;SDS011;51920;53.952;10.292;2023-11-21T05:32:25;9.85;;;4.75;;
65315;SDS011;51920;53.952;10.292;2023-11-21T05:34:53;8.57;;;4.60;;
65315;SDS011;51920;53.952;10.292;2023-11-21T05:37:19;8.23;;;4.40;;
65315;SDS011;51920;53.952;10.292;2023-11-21T05:39:46;6.43;;;3.90;;
65315;SDS011;51920;53.952;10.292;2023-11-21T05:42:15;6.68;;;4.18;;
65315;SDS011;51920;53.952;10.292;2023-11-21T05:44:43;7.88;;;4.80;;
65315;SDS011;51920;53.952;10.292;2023-11-21T05:47:10;8.15;;;4.63;;
65315;SDS011;51920;53.952;10.292;2023-11-21T05:49:36;8.90;;;4.85;;
65315;SDS011;51920;53.952;10.292;2023-11-21T05:52:03;8.07;;;5.10;;
65315;SDS011;51920;53.952;10.292;2023-11-21T05:54:32;9.65;;;4.80;;
65315;SDS011;51920;53.952;10.292;2023-11-21T05:56:59;8.57;;;5.05;;
65315;SDS011;51920;53.952;10.292;2023-11-21T05:59:26;8.20;;;4.82;;
65315;SDS011;51920;53.952;10.292;2023-11-21T06:01:52;7.68;;;4.80;;
65315;SDS011;51920;53.952;10.292;2023-11-21T06:04:20;7.93;;;4.43;;
65315;SDS011;51920;53.952;10.292;2023-11-21T06:06:51;7.30;;;4.57;;
65315;SDS011;51920;53.952;10.292;2023-11-21T06:09:19;8.85;;;4.90;;
65315;SDS011;51920;53.952;10.292;2023-11-21T06:11:47;7.50;;;4.38;;
65315;SDS011;51920;53.952;10.292;2023-11-21T06:14:13;8.77;;;4.38;;
65315;SDS011;51920;53.952;10.292;2023-11-21T06:16:44;7.00;;;3.80;;
65315;SDS011;51920;53.952;10.292;2023-11-21T06:19:11;7.18;;;3.80;;
65315;SDS011;51920;53.952;10.292;2023-11-21T06:21:38;7.38;;;4.32;;
65315;SDS011;51920;53.952;10.292;2023-11-21T06:24:05;7.25;;;4.20;;
65315;SDS011;51920;53.952;10.292;2023-11-21T06:26:33;7.15;;;3.95;;
65315;SDS011;51920;53.952;10.292;2023-11-21T06:29:00;7.57;;;3.97;;
65315;SDS011;51920;53.952;10.292;2023-11-21T06:31:29;6.45;;;3.78;;
65315;SDS011;51920;53.952;10.292;2023-11-21T06:33:56;6.47;;;4.30;;
65315;SDS011;51920;53.952;10.292;2023-11-21T06:36:26;8.32;;;4.00;;
65315;SDS011;51920;53.952;10.292;2023-11-21T06:38:53;5.93;;;3.90;;
65315;SDS011;51920;53.952;10.292;2023-11-21T06:41:19;7.33;;;3.10;;
65315;SDS011;51920;53.952;10.292;2023-11-21T06:43:47;6.15;;;3.40;;
65315;SDS011;51920;53.952;10.292;2023-11-21T06:46:14;5.35;;;3.30;;
65315;SDS011;51920;53.952;10.292;2023-11-21T06:48:43;7.40;;;3.47;;
65315;SDS011;51920;53.952;10.292;2023-11-21T06:51:11;6.03;;;3.70;;
65315;SDS011;51920;53.952;10.292;2023-11-21T06:53:39;6.77;;;3.53;;
65315;SDS011;51920;53.952;10.292;2023-11-21T06:56:15;6.18;;;3.65;;
65315;SDS011;51920;53.952;10.292;2023-11-21T06:58:42;8.95;;;3.90;;
65315;SDS011;51920;53.952;10.292;2023-11-21T07:01:13;6.25;;;3.53;;
65315;SDS011;51920;53.952;10.292;2023-11-21T07:03:40;6.53;;;3.70;;
65315;SDS011;51920;53.952;10.292;2023-11-21T07:06:08;6.67;;;3.53;;
65315;SDS011;51920;53.952;10.292;2023-11-21T07:08:34;6.55;;;3.80;;
65315;SDS011;51920;53.952;10.292;2023-11-21T07:11:01;8.43;;;4.10;;
65315;SDS011;51920;53.952;10.292;2023-11-21T07:13:29;6.72;;;3.70;;
65315;SDS011;51920;53.952;10.292;2023-11-21T07:15:59;5.95;;;3.65;;
65315;SDS011;51920;53.952;10.292;2023-11-21T07:18:26;5.80;;;3.63;;
65315;SDS011;51920;53.952;10.292;2023-11-21T07:20:53;8.10;;;3.70;;
65315;SDS011;51920;53.952;10.292;2023-11-21T07:23:19;7.80;;;4.03;;
65315;SDS011;51920;53.952;10.292;2023-11-21T07:25:49;7.05;;;3.50;;
65315;SDS011;51920;53.952;10.292;2023-11-21T07:28:15;5.97;;;3.70;;
65315;SDS011;51920;53.952;10.292;2023-11-21T07:30:42;6.97;;;3.93;;
65315;SDS011;51920;53.952;10.292;2023-11-21T07:33:09;6.18;;;3.85;;
65315;SDS011;51920;53.952;10.292;2023-11-21T07:35:36;7.55;;;4.20;;
65315;SDS011;51920;53.952;10.292;2023-11-21T07:38:03;7.95;;;3.95;;
65315;SDS011;51920;53.952;10.292;2023-11-21T07:40:30;8.32;;;4.50;;
65315;SDS011;51920;53.952;10.292;2023-11-21T07:42:59;8.60;;;3.93;;
65315;SDS011;51920;53.952;10.292;2023-11-21T07:45:28;7.40;;;3.80;;
65315;SDS011;51920;53.952;10.292;2023-11-21T07:47:54;6.68;;;4.45;;
65315;SDS011;51920;53.952;10.292;2023-11-21T07:50:21;7.57;;;4.15;;
65315;SDS011;51920;53.952;10.292;2023-11-21T07:52:49;8.38;;;4.05;;
65315;SDS011;51920;53.952;10.292;2023-11-21T07:55:16;9.27;;;4.60;;
65315;SDS011;51920;53.952;10.292;2023-11-21T07:57:42;7.60;;;4.32;;
65315;SDS011;51920;53.952;10.292;2023-11-21T08:00:09;7.10;;;4.60;;
65315;SDS011;51920;53.952;10.292;2023-11-21T08:02:39;7.07;;;4.65;;
65315;SDS011;51920;53.952;10.292;2023-11-21T08:05:08;6.18;;;3.90;;
65315;SDS011;51920;53.952;10.292;2023-11-21T08:07:36;6.07;;;3.90;;
65315;SDS011;51920;53.952;10.292;2023-11-21T08:10:04;6.20;;;3.85;;
65315;SDS011;51920;53.952;10.292;2023-11-21T08:12:31;7.18;;;4.18;;
65315;SDS011;51920;53.952;10.292;2023-11-21T08:14:58;6.25;;;3.70;;
65315;SDS011;51920;53.952;10.292;2023-11-21T08:17:25;5.63;;;4.00;;
65315;SDS011;51920;53.952;10.292;2023-11-21T08:19:51;7.83;;;3.60;;
65315;SDS011;51920;53.952;10.292;2023-11-21T08:22:18;6.40;;;3.92;;
65315;SDS011;51920;53.952;10.292;2023-11-21T08:24:45;7.63;;;4.50;;
65315;SDS011;51920;53.952;10.292;2023-11-21T08:27:13;5.97;;;4.00;;
65315;SDS011;51920;53.952;10.292;2023-11-21T08:29:42;8.00;;;4.40;;
65315;SDS011;51920;53.952;10.292;2023-11-21T08:32:09;6.20;;;3.87;;
65315;SDS011;51920;53.952;10.292;2023-11-21T08:34:36;7.65;;;4.30;;
65315;SDS011;51920;53.952;10.292;2023-11-21T08:37:02;7.65;;;4.35;;
65315;SDS011;51920;53.952;10.292;2023-11-21T08:39:29;6.20;;;3.80;;
65315;SDS011;51920;53.952;10.292;2023-11-21T08:41:57;6.63;;;4.00;;
65315;SDS011;51920;53.952;10.292;2023-11-21T08:44:24;6.00;;;3.73;;
65315;SDS011;51920;53.952;10.292;2023-11-21T08:46:51;7.93;;;4.45;;
65315;SDS011;51920;53.952;10.292;2023-11-21T08:49:17;8.60;;;4.30;;
65315;SDS011;51920;53.952;10.292;2023-11-21T08:51:44;6.70;;;4.20;;
65315;SDS011;51920;53.952;10.292;2023-11-21T08:54:12;8.93;;;4.07;;
65315;SDS011;51920;53.952;10.292;2023-11-21T08:56:38;8.80;;;4.93;;
65315;SDS011;51920;53.952;10.292;2023-11-21T08:59:06;7.72;;;4.53;;
65315;SDS011;51920;53.952;10.292;2023-11-21T09:01:34;10.32;;;5.03;;
65315;SDS011;51920;53.952;10.292;2023-11-21T09:04:01;7.30;;;4.30;;
65315;SDS011;51920;53.952;10.292;2023-11-21T09:06:28;8.40;;;4.60;;
65315;SDS011;51920;53.952;10.292;2023-11-21T09:08:55;7.30;;;4.40;;
65315;SDS011;51920;53.952;10.292;2023-11-21T09:11:22;8.73;;;4.80;;
65315;SDS011;51920;53.952;10.292;2023-11-21T09:13:49;7.50;;;5.00;;
65315;SDS011;51920;53.952;10.292;2023-11-21T09:16:17;8.25;;;4.50;;
65315;SDS011;51920;53.952;10.292;2023-11-21T09:18:44;7.22;;;4.43;;
65315;SDS011;51920;53.952;10.292;2023-11-21T09:21:11;8.60;;;4.40;;
65315;SDS011;51920;53.952;10.292;2023-11-21T09:23:38;7.68;;;4.55;;
65315;SDS011;51920;53.952;10.292;2023-11-21T09:26:05;8.88;;;4.55;;
65315;SDS011;51920;53.952;10.292;2023-11-21T09:28:31;7.28;;;4.22;;
65315;SDS011;51920;53.952;10.292;2023-11-21T09:30:58;8.55;;;4.50;;
65315;SDS011;51920;53.952;10.292;2023-11-21T09:33:25;9.93;;;4.20;;
65315;SDS011;51920;53.952;10.292;2023-11-21T09:35:52;7.38;;;4.38;;
65315;SDS011;51920;53.952;10.292;2023-11-21T09:38:19;7.40;;;4.13;;
65315;SDS011;51920;53.952;10.292;2023-11-21T09:40:45;8.07;;;4.40;;
65315;SDS011;51920;53.952;10.292;2023-11-21T09:43:16;7.50;;;4.10;;
65315;SDS011;51920;53.952;10.292;2023-11-21T09:45:47;8.23;;;4.90;;
65315;SDS011;51920;53.952;10.292;2023-11-21T09:48:20;7.57;;;4.68;;
65315;SDS011;51920;53.952;10.292;2023-11-21T09:50:48;8.50;;;5.43;;
65315;SDS011;51920;53.952;10.292;2023-11-21T09:53:18;10.50;;;5.63;;
65315;SDS011;51920;53.952;10.292;2023-11-21T09:55:48;7.57;;;4.55;;
65315;SDS011;51920;53.952;10.292;2023-11-21T09:58:17;8.30;;;4.80;;
65315;SDS011;51920;53.952;10.292;2023-11-21T10:00:46;7.07;;;4.20;;
65315;SDS011;51920;53.952;10.292;2023-11-21T10:03:14;7.75;;;4.32;;
65315;SDS011;51920;53.952;10.292;2023-11-21T10:05:42;8.35;;;4.20;;
65315;SDS011;51920;53.952;10.292;2023-11-21T10:08:10;9.02;;;4.45;;
65315;SDS011;51920;53.952;10.292;2023-11-21T10:10:42;9.33;;;4.50;;
65315;SDS011;51920;53.952;10.292;2023-11-21T10:13:16;7.70;;;4.40;;
65315;SDS011;51920;53.952;10.292;2023-11-21T10:15:54;11.77;;;5.90;;
65315;SDS011;51920;53.952;10.292;2023-11-21T10:18:21;8.48;;;4.80;;
65315;SDS011;51920;53.952;10.292;2023-11-21T10:20:51;7.85;;;4.72;;
65315;SDS011;51920;53.952;10.292;2023-11-21T10:23:19;7.77;;;4.30;;
65315;SDS011;51920;53.952;10.292;2023-11-21T10:25:47;7.28;;;4.40;;
65315;SDS011;51920;53.952;10.292;2023-11-21T10:28:16;8.05;;;4.57;;
65315;SDS011;51920;53.952;10.292;2023-11-21T10:30:44;7.47;;;4.45;;
65315;SDS011;51920;53.952;10.292;2023-11-21T10:33:10;9.13;;;5.97;;
65315;SDS011;51920;53.952;10.292;2023-11-21T10:35:47;12.17;;;6.20;;
65315;SDS011;51920;53.952;10.292;2023-11-21T10:38:17;8.82;;;4.57;;
65315;SDS011;51920;53.952;10.292;2023-11-21T10:40:44;7.25;;;4.45;;
65315;SDS011;51920;53.952;10.292;2023-11-21T10:43:13;7.45;;;4.03;;
65315;SDS011;51920;53.952;10.292;2023-11-21T10:45:41;9.55;;;4.47;;
65315;SDS011;51920;53.952;10.292;2023-11-21T10:48:09;4.70;;;3.20;;
65315;SDS011;51920;53.952;10.292;2023-11-21T10:50:37;5.45;;;3.58;;
65315;SDS011;51920;53.952;10.292;2023-11-21T10:53:04;7.00;;;3.90;;
65315;SDS011;51920;53.952;10.292;2023-11-21T10:55:32;6.32;;;3.90;;
65315;SDS011;51920;53.952;10.292;2023-11-21T10:58:00;5.53;;;3.45;;
65315;SDS011;51920;53.952;10.292;2023-11-21T11:00:28;6.20;;;3.77;;
65315;SDS011;51920;53.952;10.292;2023-11-21T11:02:56;6.65;;;3.45;;
65315;SDS011;51920;53.952;10.292;2023-11-21T11:05:23;7.25;;;3.97;;
65315;SDS011;51920;53.952;10.292;2023-11-21T11:08:00;6.38;;;3.50;;
65315;SDS011;51920;53.952;10.292;2023-11-21T11:10:31;6.20;;;3.70;;
65315;SDS011;51920;53.952;10.292;2023-11-21T11:12:58;5.80;;;3.30;;
65315;SDS011;51920;53.952;10.292;2023-11-21T11:15:26;5.63;;;3.72;;
65315;SDS011;51920;53.952;10.292;2023-11-21T11:17:54;7.60;;;4.10;;
65315;SDS011;51920;53.952;10.292;2023-11-21T11:20:25;6.22;;;3.83;;
65315;SDS011;51920;53.952;10.292;2023-11-21T11:29:15;4.95;;;3.40;;
65315;SDS011;51920;53.952;10.292;2023-11-21T11:32:03;6.05;;;3.50;;
65315;SDS011;51920;53.952;10.292;2023-11-21T11:34:36;4.68;;;3.40;;
65315;SDS011;51920;53.952;10.292;2023-11-21T11:37:27;5.07;;;3.72;;
65315;SDS011;51920;53.952;10.292;2023-11-21T11:39:55;4.20;;;2.90;;
65315;SDS011;51920;53.952;10.292;2023-11-21T11:42:23;5.10;;;3.40;;
65315;SDS011;51920;53.952;10.292;2023-11-21T11:44:50;5.13;;;3.42;;
65315;SDS011;51920;53.952;10.292;2023-11-21T11:50:01;3.92;;;3.03;;
65315;SDS011;51920;53.952;10.292;2023-11-21T11:52:44;4.70;;;2.87;;
65315;SDS011;51920;53.952;10.292;2023-11-21T11:55:15;4.85;;;3.40;;
65315;SDS011;51920;53.952;10.292;2023-11-21T11:57:46;5.25;;;3.40;;
65315;SDS011;51920;53.952;10.292;2023-11-21T12:00:17;5.88;;;3.63;;
65315;SDS011;51920;53.952;10.292;2023-11-21T12:02:55;5.97;;;3.85;;
65315;SDS011;51920;53.952;10.292;2023-11-21T12:05:30;6.53;;;3.20;;
65315;SDS011;51920;53.952;10.292;2023-11-21T12:08:11;6.40;;;3.67;;
65315;SDS011;51920;53.952;10.292;2023-11-21T12:10:38;5.68;;;3.50;;
65315;SDS011;51920;53.952;10.292;2023-11-21T12:13:09;7.60;;;3.38;;
65315;SDS011;51920;53.952;10.292;2023-11-21T12:15:38;6.55;;;3.50;;
65315;SDS011;51920;53.952;10.292;2023-11-21T12:18:07;4.47;;;3.13;;
65315;SDS011;51920;53.952;10.292;2023-11-21T12:20:34;4.70;;;3.55;;
65315;SDS011;51920;53.952;10.292;2023-11-21T12:23:05;5.38;;;3.60;;
65315;SDS011;51920;53.952;10.292;2023-11-21T12:25:32;7.10;;;3.47;;
65315;SDS011;51920;53.952;10.292;2023-11-21T12:28:00;6.22;;;3.45;;
65315;SDS011;51920;53.952;10.292;2023-11-21T12:30:29;4.63;;;3.13;;
65315;SDS011;51920;53.952;10.292;2023-11-21T12:32:58;4.90;;;3.03;;
65315;SDS011;51920;53.952;10.292;2023-11-21T12:35:27;5.45;;;3.20;;
65315;SDS011;51920;53.952;10.292;2023-11-21T12:37:57;5.43;;;3.20;;
65315;SDS011;51920;53.952;10.292;2023-11-21T12:40:24;4.40;;;3.17;;
65315;SDS011;51920;53.952;10.292;2023-11-21T12:42:53;5.17;;;3.17;;
65315;SDS011;51920;53.952;10.292;2023-11-21T12:45:21;4.43;;;3.00;;
65315;SDS011;51920;53.952;10.292;2023-11-21T12:47:55;5.05;;;3.30;;
65315;SDS011;51920;53.952;10.292;2023-11-21T12:50:34;5.35;;;3.40;;
65315;SDS011;51920;53.952;10.292;2023-11-21T12:53:06;6.03;;;3.67;;
65315;SDS011;51920;53.952;10.292;2023-11-21T12:55:43;5.73;;;3.63;;
65315;SDS011;51920;53.952;10.292;2023-11-21T12:58:16;6.38;;;3.65;;
65315;SDS011;51920;53.952;10.292;2023-11-21T13:00:44;5.15;;;3.60;;
65315;SDS011;51920;53.952;10.292;2023-11-21T13:03:14;5.60;;;3.78;;
65315;SDS011;51920;53.952;10.292;2023-11-21T13:05:52;5.53;;;3.30;;
65315;SDS011;51920;53.952;10.292;2023-11-21T13:08:21;6.93;;;3.07;;
65315;SDS011;51920;53.952;10.292;2023-11-21T13:10:51;5.20;;;3.40;;
65315;SDS011;51920;53.952;10.292;2023-11-21T13:13:23;4.97;;;3.40;;
65315;SDS011;51920;53.952;10.292;2023-11-21T13:15:52;6.57;;;3.10;;
65315;SDS011;51920;53.952;10.292;2023-11-21T13:18:26;5.75;;;3.70;;
65315;SDS011;51920;53.952;10.292;2023-11-21T13:20:55;6.20;;;3.70;;
65315;SDS011;51920;53.952;10.292;2023-11-21T13:23:23;3.58;;;2.65;;
65315;SDS011;51920;53.952;10.292;2023-11-21T13:25:50;5.65;;;2.80;;
65315;SDS011;51920;53.952;10.292;2023-11-21T13:31:01;4.40;;;3.17;;
65315;SDS011;51920;53.952;10.292;2023-11-21T13:33:36;4.93;;;3.00;;
65315;SDS011;51920;53.952;10.292;2023-11-21T13:36:11;4.68;;;3.20;;
65315;SDS011;51920;53.952;10.292;2023-11-21T13:39:00;6.40;;;3.38;;
65315;SDS011;51920;53.952;10.292;2023-11-21T13:42:16;5.63;;;3.45;;
65315;SDS011;51920;53.952;10.292;2023-11-21T13:44:45;6.10;;;3.08;;
65315;SDS011;51920;53.952;10.292;2023-11-21T13:47:38;6.53;;;4.10;;
65315;SDS011;51920;53.952;10.292;2023-11-21T13:50:08;6.95;;;3.70;;
65315;SDS011;51920;53.952;10.292;2023-11-21T13:52:45;7.13;;;4.13;;
65315;SDS011;51920;53.952;10.292;2023-11-21T13:55:20;9.68;;;4.22;;
65315;SDS011;51920;53.952;10.292;2023-11-21T13:57:50;6.85;;;4.25;;
65315;SDS011;51920;53.952;10.292;2023-11-21T14:00:24;8.23;;;4.50;;
65315;SDS011;51920;53.952;10.292;2023-11-21T14:03:32;13.05;;;4.93;;
65315;SDS011;51920;53.952;10.292;2023-11-21T14:06:15;7.82;;;4.35;;
65315;SDS011;51920;53.952;10.292;2023-11-21T14:09:00;5.30;;;3.25;;
65315;SDS011;51920;53.952;10.292;2023-11-21T14:11:37;5.85;;;3.53;;
65315;SDS011;51920;53.952;10.292;2023-11-21T14:14:14;4.93;;;3.17;;
65315;SDS011;51920;53.952;10.292;2023-11-21T14:16:43;5.63;;;3.28;;
65315;SDS011;51920;53.952;10.292;2023-11-21T14:19:16;5.25;;;3.15;;
65315;SDS011;51920;53.952;10.292;2023-11-21T14:22:17;6.70;;;3.35;;
65315;SDS011;51920;53.952;10.292;2023-11-21T14:24:47;6.55;;;3.65;;
65315;SDS011;51920;53.952;10.292;2023-11-21T14:27:18;7.10;;;3.17;;
65315;SDS011;51920;53.952;10.292;2023-11-21T14:29:58;6.53;;;3.30;;
65315;SDS011;51920;53.952;10.292;2023-11-21T14:32:30;6.22;;;3.72;;
65315;SDS011;51920;53.952;10.292;2023-11-21T14:34:57;5.90;;;3.53;;
65315;SDS011;51920;53.952;10.292;2023-11-21T14:37:24;7.53;;;3.80;;
65315;SDS011;51920;53.952;10.292;2023-11-21T14:39:51;7.00;;;3.47;;
65315;SDS011;51920;53.952;10.292;2023-11-21T14:42:18;6.22;;;3.20;;
65315;SDS011;51920;53.952;10.292;2023-11-21T14:44:51;7.03;;;3.42;;
65315;SDS011;51920;53.952;10.292;2023-11-21T14:47:18;5.28;;;3.33;;
65315;SDS011;51920;53.952;10.292;2023-11-21T14:49:52;6.38;;;3.67;;
65315;SDS011;51920;53.952;10.292;2023-11-21T14:52:19;5.70;;;3.27;;
65315;SDS011;51920;53.952;10.292;2023-11-21T14:55:01;6.00;;;3.60;;
65315;SDS011;51920;53.952;10.292;2023-11-21T14:57:51;5.85;;;3.50;;